sensor_id;sensor_type;location;lat;lon;timestamp;P1;durP1;ratioP1;P2;durP2;ratioP2
71048;SDS011;58704;53.358;-6.238;2023-05-14T00:00:41;12.15;;;7.18;;
71048;SDS011;58704;53.358;-6.238;2023-05-14T00:03:06;9.90;;;5.87;;
71048;SDS011;58704;53.358;-6.238;2023-05-14T00:05:31;7.93;;;5.00;;
71048;SDS011;58704;53.358;-6.238;2023-05-14T00:07:57;10.57;;;4.93;;
71048;SDS011;58704;53.358;-6.238;2023-05-14T00:10:22;9.13;;;5.87;;
71048;SDS011;58704;53.358;-6.238;2023-05-14T00:12:49;8.25;;;5.20;;
71048;SDS011;58704;53.358;-6.238;2023-05-14T00:15:15;7.23;;;5.17;;
71048;SDS011;58704;53.358;-6.238;2023-05-14T00:17:40;6.63;;;4.95;;
71048;SDS011;58704;53.358;-6.238;2023-05-14T00:20:06;6.50;;;4.90;;
71048;SDS011;58704;53.358;-6.238;2023-05-14T00:22:32;9.27;;;4.97;;
71048;SDS011;58704;53.358;-6.238;2023-05-14T00:24:58;6.80;;;4.80;;
71048;SDS011;58704;53.358;-6.238;2023-05-14T00:27:23;7.33;;;5.07;;
71048;SDS011;58704;53.358;-6.238;2023-05-14T00:29:48;6.97;;;4.83;;
71048;SDS011;58704;53.358;-6.238;2023-05-14T00:32:14;7.30;;;4.70;;
71048;SDS011;58704;53.358;-6.238;2023-05-14T00:34:40;6.47;;;5.10;;
71048;SDS011;58704;53.358;-6.238;2023-05-14T00:37:05;8.03;;;4.53;;
71048;SDS011;58704;53.358;-6.238;2023-05-14T00:39:30;7.37;;;5.17;;
71048;SDS011;58704;53.358;-6.238;2023-05-14T00:41:56;5.65;;;4.70;;
71048;SDS011;58704;53.358;-6.238;2023-05-14T00:44:21;4.73;;;3.90;;
71048;SDS011;58704;53.358;-6.238;2023-05-14T00:46:47;6.03;;;4.70;;
71048;SDS011;58704;53.358;-6.238;2023-05-14T00:49:12;7.38;;;4.40;;
71048;SDS011;58704;53.358;-6.238;2023-05-14T00:51:38;6.87;;;4.30;;
71048;SDS011;58704;53.358;-6.238;2023-05-14T00:54:05;5.97;;;4.25;;
71048;SDS011;58704;53.358;-6.238;2023-05-14T00:56:30;6.30;;;5.00;;
71048;SDS011;58704;53.358;-6.238;2023-05-14T00:59:00;6.78;;;4.40;;
71048;SDS011;58704;53.358;-6.238;2023-05-14T01:01:26;5.33;;;4.07;;
71048;SDS011;58704;53.358;-6.238;2023-05-14T01:03:52;5.60;;;4.45;;
71048;SDS011;58704;53.358;-6.238;2023-05-14T01:11:51;5.68;;;4.10;;
71048;SDS011;58704;53.358;-6.238;2023-05-14T01:17:10;5.07;;;3.60;;
71048;SDS011;58704;53.358;-6.238;2023-05-14T01:19:40;3.80;;;3.28;;
71048;SDS011;58704;53.358;-6.238;2023-05-14T01:22:09;5.88;;;3.85;;
71048;SDS011;58704;53.358;-6.238;2023-05-14T01:24:34;5.32;;;3.80;;
71048;SDS011;58704;53.358;-6.238;2023-05-14T01:27:02;5.63;;;4.10;;
71048;SDS011;58704;53.358;-6.238;2023-05-14T01:29:39;5.82;;;3.40;;
71048;SDS011;58704;53.358;-6.238;2023-05-14T01:32:07;5.10;;;3.93;;
71048;SDS011;58704;53.358;-6.238;2023-05-14T01:34:34;4.00;;;3.25;;
71048;SDS011;58704;53.358;-6.238;2023-05-14T01:37:02;6.25;;;3.60;;
71048;SDS011;58704;53.358;-6.238;2023-05-14T01:39:28;7.22;;;3.75;;
71048;SDS011;58704;53.358;-6.238;2023-05-14T01:41:55;7.00;;;3.70;;
71048;SDS011;58704;53.358;-6.238;2023-05-14T01:44:21;6.53;;;3.63;;
71048;SDS011;58704;53.358;-6.238;2023-05-14T01:46:46;4.63;;;3.30;;
71048;SDS011;58704;53.358;-6.238;2023-05-14T01:49:12;5.83;;;3.13;;
71048;SDS011;58704;53.358;-6.238;2023-05-14T01:51:37;6.20;;;3.47;;
71048;SDS011;58704;53.358;-6.238;2023-05-14T01:54:03;8.60;;;3.93;;
71048;SDS011;58704;53.358;-6.238;2023-05-14T01:56:28;5.00;;;3.43;;
71048;SDS011;58704;53.358;-6.238;2023-05-14T01:58:54;4.40;;;3.50;;
71048;SDS011;58704;53.358;-6.238;2023-05-14T02:01:21;6.93;;;3.95;;
71048;SDS011;58704;53.358;-6.238;2023-05-14T02:03:54;4.32;;;3.45;;
71048;SDS011;58704;53.358;-6.238;2023-05-14T02:06:21;5.38;;;3.90;;
71048;SDS011;58704;53.358;-6.238;2023-05-14T02:08:46;4.80;;;3.37;;
71048;SDS011;58704;53.358;-6.238;2023-05-14T02:11:11;5.63;;;4.00;;
71048;SDS011;58704;53.358;-6.238;2023-05-14T02:13:37;8.50;;;3.80;;
71048;SDS011;58704;53.358;-6.238;2023-05-14T02:16:02;5.70;;;4.13;;
71048;SDS011;58704;53.358;-6.238;2023-05-14T02:18:28;6.80;;;3.90;;
71048;SDS011;58704;53.358;-6.238;2023-05-14T02:20:53;7.40;;;4.13;;
71048;SDS011;58704;53.358;-6.238;2023-05-14T02:23:19;8.57;;;4.20;;
71048;SDS011;58704;53.358;-6.238;2023-05-14T02:25:44;7.70;;;3.70;;
71048;SDS011;58704;53.358;-6.238;2023-05-14T02:28:09;8.00;;;3.87;;
71048;SDS011;58704;53.358;-6.238;2023-05-14T02:30:35;4.60;;;3.77;;
71048;SDS011;58704;53.358;-6.238;2023-05-14T02:33:00;6.07;;;3.65;;
71048;SDS011;58704;53.358;-6.238;2023-05-14T02:35:27;9.53;;;3.83;;
71048;SDS011;58704;53.358;-6.238;2023-05-14T02:37:53;4.88;;;3.65;;
71048;SDS011;58704;53.358;-6.238;2023-05-14T02:40:18;7.20;;;3.80;;
71048;SDS011;58704;53.358;-6.238;2023-05-14T02:42:44;5.65;;;3.47;;
71048;SDS011;58704;53.358;-6.238;2023-05-14T02:45:10;4.30;;;3.90;;
71048;SDS011;58704;53.358;-6.238;2023-05-14T02:47:36;5.80;;;4.40;;
71048;SDS011;58704;53.358;-6.238;2023-05-14T02:50:02;11.30;;;4.50;;
71048;SDS011;58704;53.358;-6.238;2023-05-14T02:52:30;5.13;;;3.90;;
71048;SDS011;58704;53.358;-6.238;2023-05-14T02:54:55;4.53;;;3.50;;
71048;SDS011;58704;53.358;-6.238;2023-05-14T02:57:20;6.43;;;3.57;;
71048;SDS011;58704;53.358;-6.238;2023-05-14T02:59:46;5.20;;;3.53;;
71048;SDS011;58704;53.358;-6.238;2023-05-14T03:02:11;8.57;;;4.35;;
71048;SDS011;58704;53.358;-6.238;2023-05-14T03:04:37;6.33;;;4.17;;
71048;SDS011;58704;53.358;-6.238;2023-05-14T03:07:02;5.50;;;4.10;;
71048;SDS011;58704;53.358;-6.238;2023-05-14T03:09:29;5.90;;;4.00;;
71048;SDS011;58704;53.358;-6.238;2023-05-14T03:11:54;6.63;;;4.40;;
71048;SDS011;58704;53.358;-6.238;2023-05-14T03:14:20;5.63;;;4.28;;
71048;SDS011;58704;53.358;-6.238;2023-05-14T03:16:48;6.50;;;4.20;;
71048;SDS011;58704;53.358;-6.238;2023-05-14T03:19:14;9.43;;;4.57;;
71048;SDS011;58704;53.358;-6.238;2023-05-14T03:21:39;7.13;;;4.17;;
71048;SDS011;58704;53.358;-6.238;2023-05-14T03:24:05;7.10;;;4.33;;
71048;SDS011;58704;53.358;-6.238;2023-05-14T03:26:30;6.28;;;4.40;;
71048;SDS011;58704;53.358;-6.238;2023-05-14T03:28:56;8.80;;;4.87;;
71048;SDS011;58704;53.358;-6.238;2023-05-14T03:31:21;8.67;;;4.63;;
71048;SDS011;58704;53.358;-6.238;2023-05-14T03:33:47;6.50;;;4.43;;
71048;SDS011;58704;53.358;-6.238;2023-05-14T03:36:12;8.20;;;4.47;;
71048;SDS011;58704;53.358;-6.238;2023-05-14T03:38:37;6.07;;;4.23;;
71048;SDS011;58704;53.358;-6.238;2023-05-14T03:41:03;9.27;;;4.10;;
71048;SDS011;58704;53.358;-6.238;2023-05-14T03:43:28;6.83;;;4.30;;
71048;SDS011;58704;53.358;-6.238;2023-05-14T03:45:54;5.07;;;3.63;;
71048;SDS011;58704;53.358;-6.238;2023-05-14T03:48:19;11.17;;;4.43;;
71048;SDS011;58704;53.358;-6.238;2023-05-14T03:50:45;7.20;;;4.40;;
71048;SDS011;58704;53.358;-6.238;2023-05-14T03:53:10;7.22;;;4.20;;
71048;SDS011;58704;53.358;-6.238;2023-05-14T03:55:36;6.83;;;4.30;;
71048;SDS011;58704;53.358;-6.238;2023-05-14T03:58:01;8.27;;;4.50;;
71048;SDS011;58704;53.358;-6.238;2023-05-14T04:00:27;6.47;;;4.65;;
71048;SDS011;58704;53.358;-6.238;2023-05-14T04:02:53;7.37;;;4.67;;
71048;SDS011;58704;53.358;-6.238;2023-05-14T04:05:19;5.40;;;4.55;;
71048;SDS011;58704;53.358;-6.238;2023-05-14T04:07:44;8.37;;;4.90;;
71048;SDS011;58704;53.358;-6.238;2023-05-14T04:10:10;8.10;;;4.80;;
71048;SDS011;58704;53.358;-6.238;2023-05-14T04:12:36;5.23;;;4.10;;
71048;SDS011;58704;53.358;-6.238;2023-05-14T04:15:02;6.93;;;4.97;;
71048;SDS011;58704;53.358;-6.238;2023-05-14T04:17:27;7.23;;;5.00;;
71048;SDS011;58704;53.358;-6.238;2023-05-14T04:19:53;6.20;;;4.47;;
71048;SDS011;58704;53.358;-6.238;2023-05-14T04:22:18;6.32;;;5.28;;
71048;SDS011;58704;53.358;-6.238;2023-05-14T04:24:44;7.10;;;4.63;;
71048;SDS011;58704;53.358;-6.238;2023-05-14T04:27:09;6.87;;;4.53;;
71048;SDS011;58704;53.358;-6.238;2023-05-14T04:29:35;6.93;;;4.57;;
71048;SDS011;58704;53.358;-6.238;2023-05-14T04:32:00;7.67;;;4.93;;
71048;SDS011;58704;53.358;-6.238;2023-05-14T04:34:25;7.27;;;5.07;;
71048;SDS011;58704;53.358;-6.238;2023-05-14T04:36:51;7.23;;;5.00;;
71048;SDS011;58704;53.358;-6.238;2023-05-14T04:39:16;8.57;;;5.17;;
71048;SDS011;58704;53.358;-6.238;2023-05-14T04:41:43;6.18;;;4.88;;
71048;SDS011;58704;53.358;-6.238;2023-05-14T04:44:08;5.97;;;4.80;;
71048;SDS011;58704;53.358;-6.238;2023-05-14T04:46:34;5.60;;;4.70;;
71048;SDS011;58704;53.358;-6.238;2023-05-14T04:48:59;6.40;;;4.80;;
71048;SDS011;58704;53.358;-6.238;2023-05-14T04:51:24;7.10;;;5.60;;
71048;SDS011;58704;53.358;-6.238;2023-05-14T04:53:50;7.60;;;4.73;;
71048;SDS011;58704;53.358;-6.238;2023-05-14T04:56:15;6.72;;;4.82;;
71048;SDS011;58704;53.358;-6.238;2023-05-14T04:58:41;6.40;;;4.90;;
71048;SDS011;58704;53.358;-6.238;2023-05-14T05:01:07;7.75;;;5.20;;
71048;SDS011;58704;53.358;-6.238;2023-05-14T05:03:33;5.03;;;4.53;;
71048;SDS011;58704;53.358;-6.238;2023-05-14T05:05:58;6.72;;;5.15;;
71048;SDS011;58704;53.358;-6.238;2023-05-14T05:08:23;7.63;;;5.07;;
71048;SDS011;58704;53.358;-6.238;2023-05-14T05:10:50;8.55;;;4.60;;
71048;SDS011;58704;53.358;-6.238;2023-05-14T05:13:15;7.23;;;5.07;;
71048;SDS011;58704;53.358;-6.238;2023-05-14T05:15:41;7.60;;;5.10;;
71048;SDS011;58704;53.358;-6.238;2023-05-14T05:18:07;9.07;;;5.28;;
71048;SDS011;58704;53.358;-6.238;2023-05-14T05:20:32;11.27;;;5.10;;
71048;SDS011;58704;53.358;-6.238;2023-05-14T05:22:59;7.23;;;5.03;;
71048;SDS011;58704;53.358;-6.238;2023-05-14T05:25:25;7.53;;;5.13;;
71048;SDS011;58704;53.358;-6.238;2023-05-14T05:27:51;7.75;;;5.53;;
71048;SDS011;58704;53.358;-6.238;2023-05-14T05:30:17;11.00;;;5.67;;
71048;SDS011;58704;53.358;-6.238;2023-05-14T05:32:42;7.20;;;5.00;;
71048;SDS011;58704;53.358;-6.238;2023-05-14T05:35:08;7.15;;;5.38;;
71048;SDS011;58704;53.358;-6.238;2023-05-14T05:37:33;14.13;;;8.10;;
71048;SDS011;58704;53.358;-6.238;2023-05-14T05:39:59;14.80;;;9.80;;
71048;SDS011;58704;53.358;-6.238;2023-05-14T05:42:24;14.87;;;9.27;;
71048;SDS011;58704;53.358;-6.238;2023-05-14T05:44:50;16.70;;;9.43;;
71048;SDS011;58704;53.358;-6.238;2023-05-14T05:47:15;13.88;;;7.65;;
71048;SDS011;58704;53.358;-6.238;2023-05-14T05:49:41;9.87;;;6.37;;
71048;SDS011;58704;53.358;-6.238;2023-05-14T05:52:06;11.33;;;5.93;;
71048;SDS011;58704;53.358;-6.238;2023-05-14T05:54:31;8.00;;;5.63;;
71048;SDS011;58704;53.358;-6.238;2023-05-14T05:56:57;10.75;;;5.82;;
71048;SDS011;58704;53.358;-6.238;2023-05-14T05:59:23;7.60;;;5.40;;
71048;SDS011;58704;53.358;-6.238;2023-05-14T06:01:49;7.38;;;6.00;;
71048;SDS011;58704;53.358;-6.238;2023-05-14T06:04:14;19.37;;;11.93;;
71048;SDS011;58704;53.358;-6.238;2023-05-14T06:06:40;27.25;;;16.70;;
71048;SDS011;58704;53.358;-6.238;2023-05-14T06:09:05;25.97;;;16.37;;
71048;SDS011;58704;53.358;-6.238;2023-05-14T06:11:31;21.30;;;13.70;;
71048;SDS011;58704;53.358;-6.238;2023-05-14T06:13:57;18.35;;;11.05;;
71048;SDS011;58704;53.358;-6.238;2023-05-14T06:16:22;11.13;;;8.23;;
71048;SDS011;58704;53.358;-6.238;2023-05-14T06:18:47;10.10;;;7.67;;
71048;SDS011;58704;53.358;-6.238;2023-05-14T06:21:13;11.13;;;7.15;;
71048;SDS011;58704;53.358;-6.238;2023-05-14T06:23:39;11.50;;;6.97;;
71048;SDS011;58704;53.358;-6.238;2023-05-14T06:26:05;9.47;;;7.00;;
71048;SDS011;58704;53.358;-6.238;2023-05-14T06:28:30;8.95;;;6.28;;
71048;SDS011;58704;53.358;-6.238;2023-05-14T06:30:56;12.63;;;8.77;;
71048;SDS011;58704;53.358;-6.238;2023-05-14T06:33:21;21.77;;;12.83;;
71048;SDS011;58704;53.358;-6.238;2023-05-14T06:35:53;28.60;;;19.58;;
71048;SDS011;58704;53.358;-6.238;2023-05-14T06:38:19;25.27;;;16.53;;
71048;SDS011;58704;53.358;-6.238;2023-05-14T06:40:44;25.33;;;17.17;;
71048;SDS011;58704;53.358;-6.238;2023-05-14T06:43:09;24.02;;;14.80;;
71048;SDS011;58704;53.358;-6.238;2023-05-14T06:45:35;24.33;;;15.00;;
71048;SDS011;58704;53.358;-6.238;2023-05-14T06:48:01;20.97;;;12.67;;
71048;SDS011;58704;53.358;-6.238;2023-05-14T06:50:26;13.55;;;10.07;;
71048;SDS011;58704;53.358;-6.238;2023-05-14T06:52:51;17.10;;;9.20;;
71048;SDS011;58704;53.358;-6.238;2023-05-14T06:55:17;8.70;;;7.23;;
71048;SDS011;58704;53.358;-6.238;2023-05-14T06:57:43;8.18;;;6.28;;
71048;SDS011;58704;53.358;-6.238;2023-05-14T07:00:09;12.10;;;7.07;;
71048;SDS011;58704;53.358;-6.238;2023-05-14T07:02:34;12.40;;;7.40;;
71048;SDS011;58704;53.358;-6.238;2023-05-14T07:05:00;10.43;;;7.40;;
71048;SDS011;58704;53.358;-6.238;2023-05-14T07:07:26;9.23;;;6.70;;
71048;SDS011;58704;53.358;-6.238;2023-05-14T07:09:51;7.60;;;5.37;;
71048;SDS011;58704;53.358;-6.238;2023-05-14T07:12:16;9.03;;;4.90;;
71048;SDS011;58704;53.358;-6.238;2023-05-14T07:14:42;5.43;;;4.33;;
71048;SDS011;58704;53.358;-6.238;2023-05-14T07:17:09;7.70;;;4.22;;
71048;SDS011;58704;53.358;-6.238;2023-05-14T07:19:35;6.47;;;3.70;;
71048;SDS011;58704;53.358;-6.238;2023-05-14T07:22:00;5.90;;;4.07;;
71048;SDS011;58704;53.358;-6.238;2023-05-14T07:24:26;4.30;;;3.90;;
71048;SDS011;58704;53.358;-6.238;2023-05-14T07:26:51;5.43;;;3.90;;
71048;SDS011;58704;53.358;-6.238;2023-05-14T07:29:17;4.83;;;3.33;;
71048;SDS011;58704;53.358;-6.238;2023-05-14T07:31:42;6.78;;;3.60;;
71048;SDS011;58704;53.358;-6.238;2023-05-14T07:34:08;3.67;;;3.27;;
71048;SDS011;58704;53.358;-6.238;2023-05-14T07:36:34;4.65;;;3.35;;
71048;SDS011;58704;53.358;-6.238;2023-05-14T07:39:00;5.40;;;3.50;;
71048;SDS011;58704;53.358;-6.238;2023-05-14T07:41:25;5.53;;;3.17;;
71048;SDS011;58704;53.358;-6.238;2023-05-14T07:43:51;6.27;;;3.57;;
71048;SDS011;58704;53.358;-6.238;2023-05-14T07:46:16;5.07;;;3.67;;
71048;SDS011;58704;53.358;-6.238;2023-05-14T07:48:41;4.33;;;3.50;;
71048;SDS011;58704;53.358;-6.238;2023-05-14T07:51:07;7.27;;;3.63;;
71048;SDS011;58704;53.358;-6.238;2023-05-14T07:53:32;6.00;;;3.63;;
71048;SDS011;58704;53.358;-6.238;2023-05-14T07:55:58;7.27;;;3.73;;
71048;SDS011;58704;53.358;-6.238;2023-05-14T07:58:24;6.28;;;3.65;;
71048;SDS011;58704;53.358;-6.238;2023-05-14T08:00:51;4.90;;;3.80;;
71048;SDS011;58704;53.358;-6.238;2023-05-14T08:03:17;5.63;;;3.83;;
71048;SDS011;58704;53.358;-6.238;2023-05-14T08:05:42;6.07;;;3.53;;
71048;SDS011;58704;53.358;-6.238;2023-05-14T08:08:08;5.65;;;3.67;;
71048;SDS011;58704;53.358;-6.238;2023-05-14T08:10:33;4.83;;;3.37;;
71048;SDS011;58704;53.358;-6.238;2023-05-14T08:12:58;3.37;;;2.90;;
71048;SDS011;58704;53.358;-6.238;2023-05-14T08:15:24;5.90;;;3.30;;
71048;SDS011;58704;53.358;-6.238;2023-05-14T08:17:49;3.90;;;3.40;;
71048;SDS011;58704;53.358;-6.238;2023-05-14T08:20:15;3.47;;;2.33;;
71048;SDS011;58704;53.358;-6.238;2023-05-14T08:22:40;2.53;;;2.30;;
71048;SDS011;58704;53.358;-6.238;2023-05-14T08:25:06;3.80;;;2.50;;
71048;SDS011;58704;53.358;-6.238;2023-05-14T08:27:37;4.63;;;2.63;;
71048;SDS011;58704;53.358;-6.238;2023-05-14T08:30:05;4.67;;;2.60;;
71048;SDS011;58704;53.358;-6.238;2023-05-14T08:32:31;5.57;;;2.75;;
71048;SDS011;58704;53.358;-6.238;2023-05-14T08:34:56;3.00;;;2.70;;
71048;SDS011;58704;53.358;-6.238;2023-05-14T08:37:22;3.33;;;2.60;;
71048;SDS011;58704;53.358;-6.238;2023-05-14T08:39:47;3.60;;;2.33;;
71048;SDS011;58704;53.358;-6.238;2023-05-14T08:42:13;2.83;;;2.43;;
71048;SDS011;58704;53.358;-6.238;2023-05-14T08:44:50;6.03;;;3.13;;
71048;SDS011;58704;53.358;-6.238;2023-05-14T08:47:19;3.75;;;2.78;;
71048;SDS011;58704;53.358;-6.238;2023-05-14T08:49:46;2.67;;;2.45;;
71048;SDS011;58704;53.358;-6.238;2023-05-14T08:52:17;5.90;;;2.40;;
71048;SDS011;58704;53.358;-6.238;2023-05-14T08:54:43;4.20;;;2.50;;
71048;SDS011;58704;53.358;-6.238;2023-05-14T08:57:09;2.75;;;2.08;;
71048;SDS011;58704;53.358;-6.238;2023-05-14T08:59:35;4.00;;;2.07;;
71048;SDS011;58704;53.358;-6.238;2023-05-14T09:02:01;4.15;;;2.67;;
71048;SDS011;58704;53.358;-6.238;2023-05-14T09:04:28;5.75;;;2.00;;
71048;SDS011;58704;53.358;-6.238;2023-05-14T09:06:55;3.17;;;2.10;;
71048;SDS011;58704;53.358;-6.238;2023-05-14T09:09:20;3.20;;;2.53;;
71048;SDS011;58704;53.358;-6.238;2023-05-14T09:11:47;3.05;;;2.38;;
71048;SDS011;58704;53.358;-6.238;2023-05-14T09:14:14;4.82;;;2.53;;
71048;SDS011;58704;53.358;-6.238;2023-05-14T09:16:39;3.63;;;2.33;;
71048;SDS011;58704;53.358;-6.238;2023-05-14T09:19:07;2.53;;;2.20;;
71048;SDS011;58704;53.358;-6.238;2023-05-14T09:21:35;3.78;;;3.10;;
71048;SDS011;58704;53.358;-6.238;2023-05-14T09:24:01;4.53;;;3.00;;
71048;SDS011;58704;53.358;-6.238;2023-05-14T09:26:26;5.37;;;2.37;;
71048;SDS011;58704;53.358;-6.238;2023-05-14T09:28:56;6.22;;;2.30;;
71048;SDS011;58704;53.358;-6.238;2023-05-14T09:31:32;4.53;;;2.20;;
71048;SDS011;58704;53.358;-6.238;2023-05-14T09:34:01;3.90;;;2.22;;
71048;SDS011;58704;53.358;-6.238;2023-05-14T09:36:26;5.00;;;2.57;;
71048;SDS011;58704;53.358;-6.238;2023-05-14T09:38:54;3.17;;;2.40;;
71048;SDS011;58704;53.358;-6.238;2023-05-14T09:41:26;2.53;;;2.00;;
71048;SDS011;58704;53.358;-6.238;2023-05-14T09:43:54;4.85;;;2.40;;
71048;SDS011;58704;53.358;-6.238;2023-05-14T09:46:21;2.22;;;2.03;;
71048;SDS011;58704;53.358;-6.238;2023-05-14T09:48:47;5.60;;;2.40;;
71048;SDS011;58704;53.358;-6.238;2023-05-14T09:51:13;4.27;;;2.40;;
71048;SDS011;58704;53.358;-6.238;2023-05-14T09:53:39;2.80;;;1.90;;
71048;SDS011;58704;53.358;-6.238;2023-05-14T09:56:05;4.13;;;2.00;;
71048;SDS011;58704;53.358;-6.238;2023-05-14T09:58:31;3.42;;;1.90;;
71048;SDS011;58704;53.358;-6.238;2023-05-14T10:00:57;3.77;;;1.60;;
71048;SDS011;58704;53.358;-6.238;2023-05-14T10:03:24;2.92;;;1.60;;
71048;SDS011;58704;53.358;-6.238;2023-05-14T10:05:50;1.60;;;1.33;;
71048;SDS011;58704;53.358;-6.238;2023-05-14T10:08:26;2.38;;;1.40;;
71048;SDS011;58704;53.358;-6.238;2023-05-14T10:10:56;1.30;;;1.20;;
71048;SDS011;58704;53.358;-6.238;2023-05-14T10:13:23;3.13;;;1.40;;
71048;SDS011;58704;53.358;-6.238;2023-05-14T10:15:59;2.40;;;1.20;;
71048;SDS011;58704;53.358;-6.238;2023-05-14T10:18:28;1.40;;;1.30;;
71048;SDS011;58704;53.358;-6.238;2023-05-14T10:21:05;2.03;;;1.30;;
71048;SDS011;58704;53.358;-6.238;2023-05-14T10:23:31;2.65;;;1.60;;
71048;SDS011;58704;53.358;-6.238;2023-05-14T10:25:57;2.00;;;1.60;;
71048;SDS011;58704;53.358;-6.238;2023-05-14T10:28:23;2.05;;;1.60;;
71048;SDS011;58704;53.358;-6.238;2023-05-14T10:30:49;2.00;;;1.33;;
71048;SDS011;58704;53.358;-6.238;2023-05-14T10:33:15;1.57;;;1.47;;
71048;SDS011;58704;53.358;-6.238;2023-05-14T10:36:02;2.13;;;1.60;;
71048;SDS011;58704;53.358;-6.238;2023-05-14T10:38:29;1.42;;;1.30;;
71048;SDS011;58704;53.358;-6.238;2023-05-14T10:41:00;2.30;;;1.75;;
71048;SDS011;58704;53.358;-6.238;2023-05-14T10:43:27;3.00;;;1.65;;
71048;SDS011;58704;53.358;-6.238;2023-05-14T10:45:58;2.03;;;1.63;;
71048;SDS011;58704;53.358;-6.238;2023-05-14T10:48:27;1.95;;;1.85;;
71048;SDS011;58704;53.358;-6.238;2023-05-14T10:50:53;3.60;;;2.35;;
71048;SDS011;58704;53.358;-6.238;2023-05-14T10:53:19;2.28;;;2.08;;
71048;SDS011;58704;53.358;-6.238;2023-05-14T10:58:38;2.27;;;1.80;;
71048;SDS011;58704;53.358;-6.238;2023-05-14T11:01:08;2.15;;;1.70;;
71048;SDS011;58704;53.358;-6.238;2023-05-14T11:03:41;4.80;;;1.60;;
71048;SDS011;58704;53.358;-6.238;2023-05-14T11:06:09;2.10;;;1.90;;
71048;SDS011;58704;53.358;-6.238;2023-05-14T11:08:35;3.83;;;1.83;;
71048;SDS011;58704;53.358;-6.238;2023-05-14T11:11:01;2.13;;;1.90;;
71048;SDS011;58704;53.358;-6.238;2023-05-14T11:13:27;2.00;;;1.80;;
71048;SDS011;58704;53.358;-6.238;2023-05-14T11:16:02;3.00;;;1.87;;
71048;SDS011;58704;53.358;-6.238;2023-05-14T11:18:29;2.10;;;1.90;;
71048;SDS011;58704;53.358;-6.238;2023-05-14T11:20:59;2.75;;;1.95;;
71048;SDS011;58704;53.358;-6.238;2023-05-14T11:23:25;1.85;;;1.70;;
71048;SDS011;58704;53.358;-6.238;2023-05-14T11:25:54;3.27;;;2.10;;
71048;SDS011;58704;53.358;-6.238;2023-05-14T11:28:24;4.03;;;2.83;;
71048;SDS011;58704;53.358;-6.238;2023-05-14T11:30:50;3.65;;;1.70;;
71048;SDS011;58704;53.358;-6.238;2023-05-14T11:33:16;2.40;;;2.20;;
71048;SDS011;58704;53.358;-6.238;2023-05-14T11:35:45;1.80;;;1.70;;
71048;SDS011;58704;53.358;-6.238;2023-05-14T11:40:40;1.88;;;1.70;;
71048;SDS011;58704;53.358;-6.238;2023-05-14T11:43:05;2.33;;;2.13;;
71048;SDS011;58704;53.358;-6.238;2023-05-14T11:45:33;1.77;;;1.67;;
71048;SDS011;58704;53.358;-6.238;2023-05-14T11:48:00;3.53;;;2.35;;
71048;SDS011;58704;53.358;-6.238;2023-05-14T11:50:26;4.43;;;2.70;;
71048;SDS011;58704;53.358;-6.238;2023-05-14T11:52:55;5.07;;;2.67;;
71048;SDS011;58704;53.358;-6.238;2023-05-14T11:55:20;4.10;;;2.70;;
71048;SDS011;58704;53.358;-6.238;2023-05-14T11:57:48;4.95;;;3.20;;
71048;SDS011;58704;53.358;-6.238;2023-05-14T12:00:14;3.60;;;2.30;;
71048;SDS011;58704;53.358;-6.238;2023-05-14T12:02:46;3.17;;;2.65;;
71048;SDS011;58704;53.358;-6.238;2023-05-14T12:05:12;3.80;;;1.98;;
71048;SDS011;58704;53.358;-6.238;2023-05-14T12:07:38;1.80;;;1.70;;
71048;SDS011;58704;53.358;-6.238;2023-05-14T12:10:05;2.78;;;1.70;;
71048;SDS011;58704;53.358;-6.238;2023-05-14T12:12:34;2.60;;;2.20;;
71048;SDS011;58704;53.358;-6.238;2023-05-14T12:15:01;1.63;;;1.38;;
71048;SDS011;58704;53.358;-6.238;2023-05-14T12:17:26;2.03;;;1.70;;
71048;SDS011;58704;53.358;-6.238;2023-05-14T12:19:52;2.50;;;1.67;;
71048;SDS011;58704;53.358;-6.238;2023-05-14T12:22:18;2.70;;;2.03;;
71048;SDS011;58704;53.358;-6.238;2023-05-14T12:27:23;1.77;;;1.60;;
71048;SDS011;58704;53.358;-6.238;2023-05-14T12:30:00;2.40;;;1.93;;
71048;SDS011;58704;53.358;-6.238;2023-05-14T12:32:27;1.83;;;1.73;;
71048;SDS011;58704;53.358;-6.238;2023-05-14T12:34:55;2.22;;;1.80;;
71048;SDS011;58704;53.358;-6.238;2023-05-14T12:37:20;1.77;;;1.67;;
71048;SDS011;58704;53.358;-6.238;2023-05-14T12:39:46;2.20;;;1.83;;
71048;SDS011;58704;53.358;-6.238;2023-05-14T12:42:11;2.88;;;1.77;;
71048;SDS011;58704;53.358;-6.238;2023-05-14T12:44:38;2.70;;;1.47;;
71048;SDS011;58704;53.358;-6.238;2023-05-14T12:47:04;2.83;;;1.70;;
71048;SDS011;58704;53.358;-6.238;2023-05-14T12:49:29;3.15;;;2.17;;
71048;SDS011;58704;53.358;-6.238;2023-05-14T12:51:55;3.33;;;2.50;;
71048;SDS011;58704;53.358;-6.238;2023-05-14T12:54:20;3.63;;;2.40;;
71048;SDS011;58704;53.358;-6.238;2023-05-14T12:56:49;4.57;;;2.00;;
71048;SDS011;58704;53.358;-6.238;2023-05-14T12:59:28;4.22;;;2.20;;
71048;SDS011;58704;53.358;-6.238;2023-05-14T13:02:18;3.30;;;2.00;;
71048;SDS011;58704;53.358;-6.238;2023-05-14T13:05:14;5.25;;;1.75;;
71048;SDS011;58704;53.358;-6.238;2023-05-14T13:07:51;6.07;;;1.92;;
71048;SDS011;58704;53.358;-6.238;2023-05-14T13:10:16;3.77;;;2.00;;
71048;SDS011;58704;53.358;-6.238;2023-05-14T13:12:42;4.68;;;2.25;;
71048;SDS011;58704;53.358;-6.238;2023-05-14T13:15:09;3.33;;;1.70;;
71048;SDS011;58704;53.358;-6.238;2023-05-14T13:17:35;4.35;;;2.28;;
71048;SDS011;58704;53.358;-6.238;2023-05-14T13:20:00;5.95;;;2.22;;
71048;SDS011;58704;53.358;-6.238;2023-05-14T13:22:26;7.13;;;2.10;;
71048;SDS011;58704;53.358;-6.238;2023-05-14T13:25:08;7.40;;;1.93;;
71048;SDS011;58704;53.358;-6.238;2023-05-14T13:27:48;5.65;;;1.90;;
71048;SDS011;58704;53.358;-6.238;2023-05-14T13:30:44;9.38;;;2.05;;
71048;SDS011;58704;53.358;-6.238;2023-05-14T13:33:28;3.78;;;1.52;;
71048;SDS011;58704;53.358;-6.238;2023-05-14T13:35:53;8.63;;;2.23;;
71048;SDS011;58704;53.358;-6.238;2023-05-14T13:38:19;4.83;;;2.00;;
71048;SDS011;58704;53.358;-6.238;2023-05-14T13:40:44;8.23;;;2.20;;
71048;SDS011;58704;53.358;-6.238;2023-05-14T13:43:09;6.60;;;2.08;;
71048;SDS011;58704;53.358;-6.238;2023-05-14T13:45:35;8.87;;;2.23;;
71048;SDS011;58704;53.358;-6.238;2023-05-14T13:48:05;7.50;;;1.98;;
71048;SDS011;58704;53.358;-6.238;2023-05-14T13:50:33;6.63;;;1.87;;
71048;SDS011;58704;53.358;-6.238;2023-05-14T13:53:01;6.82;;;1.90;;
71048;SDS011;58704;53.358;-6.238;2023-05-14T13:55:26;3.87;;;1.90;;
71048;SDS011;58704;53.358;-6.238;2023-05-14T13:57:52;6.03;;;2.10;;
71048;SDS011;58704;53.358;-6.238;2023-05-14T14:00:20;6.80;;;2.42;;
71048;SDS011;58704;53.358;-6.238;2023-05-14T14:02:45;5.93;;;1.97;;
71048;SDS011;58704;53.358;-6.238;2023-05-14T14:05:11;6.47;;;2.42;;
71048;SDS011;58704;53.358;-6.238;2023-05-14T14:07:38;6.27;;;2.13;;
71048;SDS011;58704;53.358;-6.238;2023-05-14T14:10:04;11.93;;;3.95;;
71048;SDS011;58704;53.358;-6.238;2023-05-14T14:12:30;6.90;;;2.58;;
71048;SDS011;58704;53.358;-6.238;2023-05-14T14:14:56;4.70;;;2.50;;
71048;SDS011;58704;53.358;-6.238;2023-05-14T14:17:22;9.48;;;2.85;;
71048;SDS011;58704;53.358;-6.238;2023-05-14T14:19:48;6.63;;;2.33;;
71048;SDS011;58704;53.358;-6.238;2023-05-14T14:22:13;8.40;;;2.67;;
71048;SDS011;58704;53.358;-6.238;2023-05-14T14:24:41;8.95;;;2.05;;
71048;SDS011;58704;53.358;-6.238;2023-05-14T14:27:07;5.90;;;2.03;;
71048;SDS011;58704;53.358;-6.238;2023-05-14T14:29:32;6.17;;;2.20;;
71048;SDS011;58704;53.358;-6.238;2023-05-14T14:31:58;6.40;;;2.47;;
71048;SDS011;58704;53.358;-6.238;2023-05-14T14:34:23;4.70;;;2.07;;
71048;SDS011;58704;53.358;-6.238;2023-05-14T14:36:49;6.38;;;2.08;;
71048;SDS011;58704;53.358;-6.238;2023-05-14T14:39:15;6.13;;;3.03;;
71048;SDS011;58704;53.358;-6.238;2023-05-14T14:41:40;9.43;;;3.95;;
71048;SDS011;58704;53.358;-6.238;2023-05-14T14:44:06;6.83;;;3.10;;
71048;SDS011;58704;53.358;-6.238;2023-05-14T14:46:31;5.77;;;2.47;;